Alta Hill, California
Current Conditions -  °F | °C
As of 1:40 AM on Sunday 26 Oct 2014 (Local Time) from KGOO Reporting Station
Overcast Overcast  
Wind Chill: 46°   Ceiling: 100
Heat Index: 48°   Visibility: 0.5mi
Dew Point: 48°   Wind: 5mph
Humidity: 100%   Direction: 210°SSW
Pressure: 30.17"   Gusts: NA
Location:  39.2183°N, 120.924°W
Report Text: KGOO 260840Z AUTO 21004KT 1/2SM OVC001 09/09 A3017 RMK AO1
Loading
Personal Weather Stations






























Interactive Weather Map
Tropical Storm Tracking
New forecast layout! Learn more

10-Day Weather Forecast

Advertisements
Track Severe Weather on mobile